Ashland, Montana
Current Conditions -  °F | °C
As of 10:53 PM on Friday 28 Nov 2014 (Local Time) from KMLS Reporting Station
Broken Clouds Broken Clouds  
Wind Chill: -7°   Ceiling: 600
Heat Index: -1°   Visibility: 10mi
Dew Point: -2°   Wind: 15mph
Humidity: 89%   Direction: 350°N
Pressure: 29.42"   Gusts: NA
Location:  45.62°N, 106.31°W
Report Text: KMLS 290553Z AUTO 35013KT 10SM BKN006 M01/M02 A2942 RMK AO2 SLP976 T10061022 10106 21006 53015
Loading
Personal Weather Stations






























Interactive Weather Map New forecast layout! Learn more

10-Day Weather Forecast

Advertisements
Track Severe Weather on mobile